Date,TemperatureHighF,TemperatureAvgF,TemperatureLowF,DewpointHighF,DewpointAvgF,DewpointLowF,HumidityHigh,HumidityAvg,HumidityLow,PressureMaxIn,PressureMinIn,WindSpeedMaxMPH,WindSpeedAvgMPH,GustSpeedMaxMPH,PrecipitationSumIn
2013-1-24,19.5,8.0,0.6,-3.0,-5.8,-7.8,74,55,32,30.13,30.06,10,0,0,0.00
2013-2-8,17.3,17.2,17.2,15.6,15.5,15.5,93,93,93,29.55,29.55,12,8,0,0.00
2013-2-9,22.5,18.9,16.2,21.2,17.4,14.4,95,94,93,29.81,29.52,16,2,0,0.00
2013-2-10,35.1,25.5,17.9,29.9,20.9,13.8,92,83,73,30.35,30.32,3,0,0,0.07
2013-2-11,42.2,31.7,18.6,41.9,30.0,14.4,100,94,79,30.33,29.58,5,0,0,0.50
2013-2-12,42.5,37.0,30.1,38.8,31.1,28.1,99,80,59,29.72,29.59,11,1,0,0.11
2013-2-18,26.9,23.1,19.6,7.3,4.3,0.6,58,44,32,30.15,30.05,4,0,0,0.00
2013-2-19,45.9,33.3,18.0,41.3,25.0,4.4,98,73,51,30.16,29.56,8,0,0,0.33
2013-2-20,38.9,30.9,24.3,38.4,20.6,11.7,98,67,44,29.76,29.52,13,1,0,0.00
2013-2-21,33.6,26.8,22.5,17.1,15.2,12.3,74,62,47,30.18,29.75,14,1,0,0.00
2013-2-22,38.9,30.3,21.1,25.5,21.3,17.0,85,70,48,30.36,30.18,8,0,0,0.00
2013-2-23,37.0,32.8,28.1,31.9,28.9,23.6,97,86,75,30.30,29.88,6,0,0,0.03
2013-2-24,34.1,32.8,31.1,33.6,32.1,30.1,98,97,96,29.88,29.67,7,1,0,0.45
2013-2-25,37.3,33.1,28.5,33.6,31.2,27.3,97,93,79,30.22,29.87,5,0,0,0.36
2013-2-26,42.0,35.8,31.6,34.1,30.7,27.0,98,82,63,30.32,30.12,7,0,0,0.15
2013-2-27,40.8,37.9,34.6,40.3,37.0,30.9,98,96,85,30.12,29.55,13,2,0,1.36
2013-2-28,44.7,37.0,32.4,39.2,35.1,31.6,99,93,79,29.62,29.50,3,0,0,0.00
2013-3-1,42.2,36.9,30.6,34.3,30.6,27.5,98,78,62,29.66,29.50,7,0,0,0.00
2013-3-2,40.9,36.1,31.7,30.4,28.2,26.4,85,73,61,29.66,29.60,7,0,0,0.00
2013-3-3,41.4,34.4,30.9,31.4,28.2,25.1,92,78,64,29.62,29.54,5,0,0,0.00
2013-3-4,40.0,33.3,27.3,27.2,24.5,20.8,82,70,56,29.72,29.57,10,1,0,0.01
2013-3-5,44.7,35.7,29.6,32.5,27.6,23.2,94,73,55,30.04,29.73,9,0,0,0.00
2013-3-6,38.4,35.4,33.2,35.0,32.8,30.8,97,91,77,30.06,30.00,16,2,0,0.14
2013-3-7,34.3,31.4,29.4,31.2,29.5,27.8,96,93,82,30.02,29.95,12,2,0,0.13
2013-3-8,35.0,31.2,29.2,32.0,29.5,27.4,98,94,79,30.12,29.91,10,2,0,0.00
2013-3-9,47.3,35.7,27.6,32.3,26.2,22.4,95,70,40,30.32,30.12,12,1,0,0.69
2013-3-10,46.1,35.3,25.5,33.3,29.8,24.2,97,82,57,30.39,30.27,4,0,0,0.01
2013-3-11,52.8,41.0,33.3,41.1,35.9,31.0,97,83,58,30.31,30.13,7,0,0,0.00
2013-3-12,53.5,47.6,39.7,51.7,46.6,38.5,100,96,87,30.14,29.71,9,1,0,0.43
2013-3-13,50.3,41.9,31.0,48.7,31.6,22.0,98,70,36,29.77,29.69,7,0,0,0.00
2013-3-14,34.1,29.5,21.9,26.3,16.4,6.7,83,59,42,29.82,29.69,10,1,0,0.00
2013-3-15,41.0,29.4,18.5,28.5,15.6,6.5,86,58,29,29.86,29.63,10,0,0,0.00
2013-3-16,32.2,29.5,27.0,28.3,23.4,16.6,86,78,59,29.83,29.67,5,0,0,0.00